Time;durP1;ratioP1;P1;durP2;ratioP2;P2;SDS_P1;SDS_P2;PMS_P1;PMS_P2;Temp;Humidity;BMP_temperature;BMP_pressure;BME280_temperature;BME280_humidity;BME280_pressure;Samples;Min_cycle;Max_cycle;Signal;HPM_P1;HPM_P2
2021/11/07 00:00:40;;;;;;;2.03;0.60;;;;;;;7.48;75.50;98699.09;5004327;28;20041;-62
2021/11/07 00:03:37;;;;;;;1.23;0.73;;;;;;;7.72;74.51;98745.75;4987381;28;20117;-61
2021/11/07 00:09:26;;;;;;;0.82;0.70;;;;;;;7.70;75.00;98753.50;5005269;28;20018;-63
2021/11/07 00:12:20;;;;;;;0.70;0.70;;;;;;;7.78;74.24;98748.16;5006294;28;20259;-62
2021/11/07 00:15:06;;;;;;;0.60;0.60;;;;;;;7.56;73.12;98737.53;5005749;28;20034;-62
2021/11/07 00:17:55;;;;;;;0.70;0.70;;;;;;;7.54;74.29;98759.91;4995835;28;20085;-62
2021/11/07 00:20:51;;;;;;;1.05;0.88;;;;;;;7.63;74.18;98751.97;5003377;28;20046;-62
2021/11/07 00:29:48;;;;;;;0.85;0.80;;;;;;;7.42;74.87;98756.78;5002645;28;20042;-62
2021/11/07 00:38:41;;;;;;;0.63;0.63;;;;;;;7.37;73.97;98760.34;4991061;28;20050;-62
2021/11/07 00:44:39;;;;;;;0.60;0.60;;;;;;;7.50;74.78;98766.03;5003122;28;20018;-63
2021/11/07 00:47:54;;;;;;;0.55;0.50;;;;;;;7.48;75.24;98760.94;5004983;28;20030;-62
2021/11/07 00:50:57;;;;;;;0.68;0.50;;;;;;;7.32;75.92;98775.03;5000564;28;20093;-61
2021/11/07 00:59:46;;;;;;;0.50;0.50;;;;;;;7.02;79.05;98785.97;5003164;28;20030;-63
2021/11/07 01:02:35;;;;;;;0.80;0.50;;;;;;;6.66;78.46;98724.13;5001565;28;20030;-60
2021/11/07 01:05:26;;;;;;;0.70;0.57;;;;;;;6.84;79.13;98809.53;4986391;28;20052;-62
2021/11/07 01:08:12;;;;;;;0.53;0.50;;;;;;;6.99;79.07;98790.38;5004428;28;20049;-62
2021/11/07 01:11:00;;;;;;;0.40;0.40;;;;;;;6.91;78.49;98791.38;4985964;28;20417;-62
2021/11/07 01:13:46;;;;;;;0.88;0.40;;;;;;;6.89;77.99;98787.13;4991801;28;20544;-62
2021/11/07 01:16:33;;;;;;;0.85;0.73;;;;;;;7.05;78.05;98796.25;4993712;28;20219;-62
2021/11/07 01:19:19;;;;;;;0.60;0.50;;;;;;;7.07;78.22;98804.75;5001379;28;20117;-62
2021/11/07 01:22:07;;;;;;;0.90;0.70;;;;;;;7.07;76.58;98803.91;5004639;28;20239;-63
2021/11/07 01:24:59;;;;;;;0.55;0.50;;;;;;;7.09;77.07;98815.03;5001227;28;20033;-63
2021/11/07 01:27:46;;;;;;;0.93;0.47;;;;;;;6.97;77.04;98829.00;5007423;28;20053;-62
2021/11/07 01:30:38;;;;;;;1.20;0.60;;;;;;;7.02;75.96;98826.31;5003956;28;20034;-63
2021/11/07 01:33:29;;;;;;;0.80;0.60;;;;;;;6.93;75.42;98811.94;5004587;28;20034;-62
2021/11/07 01:45:23;;;;;;;1.48;0.40;;;;;;;6.97;73.45;98874.47;5003613;28;20383;-63
2021/11/07 01:48:13;;;;;;;2.65;0.70;;;;;;;6.85;74.14;98866.13;5002741;28;20038;-63
2021/11/07 01:51:01;;;;;;;0.43;0.30;;;;;;;6.70;73.70;98835.56;5005205;28;20084;-63
2021/11/07 01:53:48;;;;;;;0.38;0.30;;;;;;;7.02;74.62;98894.09;5018645;28;20041;-63
2021/11/07 01:56:34;;;;;;;0.40;0.20;;;;;;;7.05;74.75;98885.47;5002052;28;20041;-64
2021/11/07 01:59:20;;;;;;;0.70;0.30;;;;;;;6.89;74.63;98875.47;5001457;28;20385;-63
2021/11/07 02:02:12;;;;;;;0.50;0.30;;;;;;;6.85;74.56;98891.00;5001515;28;20088;-63
2021/11/07 02:04:58;;;;;;;0.40;0.32;;;;;;;6.78;75.19;98892.00;5002566;28;20115;-62
2021/11/07 02:07:45;;;;;;;3.58;0.40;;;;;;;6.77;74.72;98895.44;5002865;28;20065;-64
2021/11/07 02:10:31;;;;;;;0.38;0.35;;;;;;;6.75;74.87;98905.78;5001403;28;20227;-64
2021/11/07 02:13:18;;;;;;;1.23;0.50;;;;;;;6.80;75.01;98908.25;5003826;28;20027;-64
2021/11/07 02:16:04;;;;;;;0.45;0.38;;;;;;;6.87;74.45;98913.28;5001457;28;20017;-62
2021/11/07 02:18:50;;;;;;;1.80;0.47;;;;;;;6.84;74.50;98922.75;5003635;28;20073;-61
2021/11/07 02:21:36;;;;;;;0.30;0.30;;;;;;;6.75;73.32;98900.63;5001992;28;20030;-62
2021/11/07 02:24:23;;;;;;;0.35;0.30;;;;;;;7.02;73.61;98926.72;5003765;28;20022;-63
2021/11/07 02:27:09;;;;;;;0.35;0.32;;;;;;;6.76;74.09;98935.78;5005556;28;20056;-61
2021/11/07 02:29:56;;;;;;;0.30;0.30;;;;;;;6.88;72.96;98947.56;5005201;28;20029;-63
2021/11/07 02:32:44;;;;;;;0.25;0.25;;;;;;;6.88;73.30;98948.44;5007788;28;20026;-62
2021/11/07 02:35:31;;;;;;;0.60;0.30;;;;;;;6.88;73.10;98955.28;5000939;28;20039;-63
2021/11/07 02:38:17;;;;;;;0.45;0.35;;;;;;;6.85;73.25;98963.06;5010009;28;20104;-63
2021/11/07 02:41:05;;;;;;;0.30;0.30;;;;;;;6.95;73.37;98949.16;5013402;28;20089;-64
2021/11/07 02:43:53;;;;;;;0.50;0.38;;;;;;;6.56;73.00;98920.72;5005810;28;20322;-63
2021/11/07 02:46:39;;;;;;;0.30;0.20;;;;;;;6.75;71.99;98962.38;5013537;28;20033;-63
2021/11/07 02:49:25;;;;;;;0.35;0.30;;;;;;;6.74;72.08;98977.00;5013097;28;20085;-63
2021/11/07 02:52:14;;;;;;;0.40;0.30;;;;;;;6.74;71.78;98981.25;5005298;28;20065;-63
2021/11/07 02:55:01;;;;;;;0.52;0.43;;;;;;;6.81;71.84;98987.16;5006126;28;20042;-62
2021/11/07 02:57:47;;;;;;;0.50;0.50;;;;;;;6.69;71.86;98990.81;5007016;28;20416;-64
2021/11/07 03:00:34;;;;;;;1.00;0.30;;;;;;;6.78;72.97;98997.50;5005916;28;20263;-62
2021/11/07 03:03:20;;;;;;;0.52;0.30;;;;;;;6.68;70.88;99015.69;5013153;28;20022;-63
2021/11/07 03:06:06;;;;;;;1.38;0.40;;;;;;;6.72;71.43;99022.47;5009548;28;20030;-62
2021/11/07 03:08:52;;;;;;;0.80;0.30;;;;;;;6.74;70.70;99023.31;5019324;28;20034;-63
2021/11/07 03:11:42;;;;;;;0.40;0.35;;;;;;;6.67;71.35;99021.72;5004125;28;20053;-63
2021/11/07 03:14:32;;;;;;;0.60;0.20;;;;;;;6.66;71.45;99025.16;5005552;28;20050;-64
2021/11/07 03:17:22;;;;;;;0.35;0.20;;;;;;;6.57;71.04;99046.72;5006002;28;20113;-64
2021/11/07 03:20:10;;;;;;;0.75;0.20;;;;;;;6.65;70.69;99049.16;5013674;28;20132;-63
2021/11/07 03:22:56;;;;;;;1.75;0.35;;;;;;;6.59;70.66;99051.84;4998662;28;20066;-65
2021/11/07 03:25:49;;;;;;;1.67;0.47;;;;;;;6.51;72.16;99061.41;5005028;28;20034;-64
2021/11/07 03:28:36;;;;;;;1.77;0.30;;;;;;;6.35;71.35;99025.63;4993373;28;20384;-63
2021/11/07 03:31:30;;;;;;;2.28;0.40;;;;;;;6.48;71.18;99058.88;4997871;28;20030;-63
2021/11/07 03:34:42;;;;;;;0.75;0.52;;;;;;;6.30;70.95;99019.72;4989969;28;20254;-63
2021/11/07 03:37:35;;;;;;;0.30;0.30;;;;;;;6.38;71.70;99050.44;5015569;28;20057;-64
2021/11/07 03:40:23;;;;;;;2.35;0.30;;;;;;;6.44;71.15;99075.22;5004590;28;20071;-64
2021/11/07 03:43:09;;;;;;;0.13;0.13;;;;;;;6.37;71.55;99077.91;5005274;28;20275;-63
2021/11/07 03:45:59;;;;;;;0.40;0.40;;;;;;;6.42;70.52;99084.69;5005430;28;20310;-63
2021/11/07 03:48:46;;;;;;;0.30;0.30;;;;;;;6.54;71.16;99097.34;5005543;28;20026;-63
2021/11/07 03:51:32;;;;;;;0.43;0.30;;;;;;;6.52;71.61;99097.38;5001559;28;20034;-63
2021/11/07 03:54:19;;;;;;;1.35;0.40;;;;;;;6.38;71.17;99092.47;4999605;28;20069;-63
2021/11/07 03:57:05;;;;;;;1.95;0.30;;;;;;;6.37;71.48;99095.91;5001186;28;20034;-62
2021/11/07 03:59:51;;;;;;;0.30;0.30;;;;;;;6.43;70.60;99120.69;5014381;28;20049;-63
2021/11/07 04:02:38;;;;;;;0.93;0.30;;;;;;;6.50;71.23;99114.56;5001449;28;20026;-63
2021/11/07 04:05:25;;;;;;;0.40;0.30;;;;;;;6.40;70.64;99123.31;5001418;28;21311;-63
2021/11/07 04:08:11;;;;;;;0.90;0.50;;;;;;;6.36;71.32;99119.91;5004350;28;20072;-62
2021/11/07 04:10:57;;;;;;;3.83;0.50;;;;;;;6.35;70.88;99132.78;5000328;28;20094;-63
2021/11/07 04:13:43;;;;;;;0.40;0.30;;;;;;;6.27;71.33;99122.63;5013577;28;20080;-63
2021/11/07 04:16:30;;;;;;;0.20;0.20;;;;;;;6.37;71.26;99137.03;5003343;28;20064;-62
2021/11/07 04:19:17;;;;;;;0.30;0.30;;;;;;;6.40;70.78;99146.44;4958166;28;1295763;-64
2021/11/07 04:22:06;;;;;;;0.77;0.40;;;;;;;6.38;71.22;99143.91;5004301;28;20034;-63
2021/11/07 04:24:52;;;;;;;0.52;0.35;;;;;;;6.30;71.63;99156.00;5004606;28;20037;-64
2021/11/07 04:27:39;;;;;;;0.30;0.30;;;;;;;6.34;71.08;99131.06;5005410;28;20022;-63
2021/11/07 04:30:25;;;;;;;1.65;1.35;;;;;;;6.53;71.62;99167.72;5004018;28;20331;-62
2021/11/07 04:33:11;;;;;;;0.28;0.28;;;;;;;6.37;71.81;99162.75;5001639;28;20202;-63
2021/11/07 04:35:59;;;;;;;2.17;0.30;;;;;;;6.34;72.07;99152.53;5002908;28;20091;-63
2021/11/07 04:38:45;;;;;;;0.40;0.40;;;;;;;6.45;71.20;99174.66;5002477;28;20018;-63
2021/11/07 04:41:31;;;;;;;0.68;0.43;;;;;;;6.32;71.48;99187.69;5002521;28;20378;-62
2021/11/07 04:44:17;;;;;;;0.68;0.50;;;;;;;6.43;71.79;99182.41;5004166;28;20038;-63
2021/11/07 04:47:04;;;;;;;0.50;0.40;;;;;;;6.33;71.93;99202.25;5004278;28;20106;-63
2021/11/07 04:49:53;;;;;;;0.40;0.40;;;;;;;6.19;71.52;99204.13;5003807;28;20098;-62
2021/11/07 04:52:39;;;;;;;0.55;0.50;;;;;;;6.36;71.26;99199.63;5003079;28;20336;-63
2021/11/07 04:55:25;;;;;;;0.50;0.50;;;;;;;6.37;71.37;99209.06;5004107;28;20060;-62
2021/11/07 04:58:12;;;;;;;0.47;0.47;;;;;;;6.37;71.40;99213.31;5003179;28;20106;-63
2021/11/07 05:00:58;;;;;;;1.10;0.57;;;;;;;6.44;70.94;99225.28;5004105;28;20023;-64
2021/11/07 05:03:44;;;;;;;1.42;0.40;;;;;;;6.48;71.19;99220.94;5002770;28;20031;-63
2021/11/07 05:06:30;;;;;;;0.88;0.50;;;;;;;6.39;71.20;99232.19;5004294;28;20030;-64
2021/11/07 05:09:17;;;;;;;2.10;0.50;;;;;;;6.46;71.04;99227.81;5002076;28;20106;-64
2021/11/07 05:12:04;;;;;;;1.05;0.40;;;;;;;6.28;70.56;99232.28;5002761;28;20026;-64
2021/11/07 05:14:50;;;;;;;2.20;0.43;;;;;;;6.21;70.22;99225.50;5003717;28;20030;-63
2021/11/07 05:17:36;;;;;;;1.85;0.40;;;;;;;6.16;70.40;99237.59;5006041;28;20140;-63
2021/11/07 05:20:22;;;;;;;2.30;0.57;;;;;;;6.15;70.38;99229.00;5001298;28;20275;-62
2021/11/07 05:23:08;;;;;;;0.40;0.40;;;;;;;6.25;70.42;99241.78;5003022;28;20255;-65
2021/11/07 05:25:55;;;;;;;0.55;0.35;;;;;;;6.16;70.78;99235.03;5004664;28;20030;-63
2021/11/07 05:28:43;;;;;;;1.10;0.60;;;;;;;6.17;70.10;99246.97;5004670;28;20030;-62
2021/11/07 05:31:30;;;;;;;0.88;0.40;;;;;;;5.84;69.88;99192.47;5011016;28;20345;-63
2021/11/07 05:34:17;;;;;;;0.40;0.40;;;;;;;6.35;69.74;99258.81;5004887;28;20030;-63
2021/11/07 05:37:03;;;;;;;2.50;0.57;;;;;;;6.20;68.85;99246.97;5011174;28;20034;-63
2021/11/07 05:39:49;;;;;;;0.55;0.55;;;;;;;6.27;67.64;99255.44;5002776;28;20033;-64
2021/11/07 05:42:36;;;;;;;1.60;0.63;;;;;;;6.31;67.87;99264.84;5001622;28;20081;-64
2021/11/07 05:45:22;;;;;;;0.73;0.40;;;;;;;6.35;67.30;99262.22;5002223;28;20052;-63
2021/11/07 05:48:08;;;;;;;4.97;0.45;;;;;;;6.29;67.99;99243.44;5003310;28;20069;-62
2021/11/07 05:50:55;;;;;;;1.65;0.50;;;;;;;6.45;67.95;99262.13;5003696;28;20030;-63
2021/11/07 05:53:41;;;;;;;0.82;0.50;;;;;;;6.62;67.45;99270.47;5003162;28;20342;-63
2021/11/07 05:56:27;;;;;;;1.83;0.70;;;;;;;6.42;68.67;99273.28;5016880;28;20319;-63
2021/11/07 05:59:13;;;;;;;2.00;0.85;;;;;;;6.55;69.25;99279.16;5003362;28;20041;-64
2021/11/07 06:01:59;;;;;;;1.15;0.70;;;;;;;6.57;69.50;99283.41;5001159;28;20081;-63
2021/11/07 06:04:45;;;;;;;1.60;0.52;;;;;;;6.59;68.95;99291.09;5004012;28;20030;-64
2021/11/07 06:07:31;;;;;;;7.30;0.93;;;;;;;6.61;68.61;99286.78;5002388;28;20038;-63
2021/11/07 06:10:18;;;;;;;3.10;0.63;;;;;;;6.59;68.88;99291.09;4999623;28;20260;-64
2021/11/07 06:13:04;;;;;;;2.63;1.10;;;;;;;6.63;69.47;99304.81;5002539;28;20033;-64
2021/11/07 06:15:52;;;;;;;1.58;0.50;;;;;;;6.52;69.98;99298.03;5002377;28;20034;-64
2021/11/07 06:18:38;;;;;;;2.05;0.60;;;;;;;6.38;70.05;99305.94;5002830;28;20033;-63
2021/11/07 06:21:24;;;;;;;1.38;0.60;;;;;;;6.55;70.64;99299.72;5002431;28;20030;-64
2021/11/07 06:24:12;;;;;;;1.38;0.57;;;;;;;6.43;70.71;99310.13;4999923;28;20022;-64
2021/11/07 06:27:00;;;;;;;1.88;0.77;;;;;;;6.51;70.31;99314.34;5003340;28;20078;-63
2021/11/07 06:29:46;;;;;;;0.57;0.55;;;;;;;6.56;70.21;99314.31;5004034;28;20148;-64
2021/11/07 06:32:32;;;;;;;0.82;0.70;;;;;;;6.43;69.38;99315.28;5001759;28;20038;-62
2021/11/07 06:35:18;;;;;;;1.42;1.10;;;;;;;6.54;69.35;99313.44;5001382;28;20034;-63
2021/11/07 06:38:04;;;;;;;1.27;0.68;;;;;;;6.60;68.56;99318.53;5003321;28;20315;-63
2021/11/07 06:40:50;;;;;;;2.63;0.90;;;;;;;6.65;68.39;99323.63;5002326;28;20093;-63
2021/11/07 06:43:36;;;;;;;3.15;0.80;;;;;;;6.66;68.39;99323.63;5000751;28;20203;-64
2021/11/07 06:46:23;;;;;;;1.38;0.80;;;;;;;6.68;68.65;99332.19;5001940;28;20081;-63
2021/11/07 06:49:12;;;;;;;1.08;0.63;;;;;;;6.49;67.88;99284.38;5001680;28;20023;-64
2021/11/07 06:51:58;;;;;;;1.55;0.80;;;;;;;6.72;67.56;99328.69;5003555;28;20022;-64
2021/11/07 06:54:44;;;;;;;1.00;0.80;;;;;;;6.57;67.88;99336.59;5002811;28;20129;-63
2021/11/07 06:57:31;;;;;;;0.80;0.60;;;;;;;6.70;68.39;99334.75;5003253;28;20062;-63
2021/11/07 07:00:24;;;;;;;0.88;0.70;;;;;;;6.43;67.43;99284.41;5007582;28;20333;-64
2021/11/07 07:03:10;;;;;;;2.08;0.77;;;;;;;6.58;66.04;99348.56;5006119;28;20097;-64
2021/11/07 07:05:56;;;;;;;2.03;0.60;;;;;;;6.50;65.69;99345.22;4990125;28;20053;-62
2021/11/07 07:08:52;;;;;;;4.32;0.90;;;;;;;6.64;66.28;99340.81;4998024;28;20030;-63
2021/11/07 07:11:46;;;;;;;2.47;0.60;;;;;;;6.67;65.61;99350.19;5006731;28;20319;-63
2021/11/07 07:14:39;;;;;;;2.83;0.80;;;;;;;6.69;65.58;99339.00;5004326;28;20073;-63
2021/11/07 07:17:35;;;;;;;0.63;0.60;;;;;;;6.53;65.57;99347.78;5003585;28;20038;-63
2021/11/07 07:23:26;;;;;;;0.82;0.60;;;;;;;6.52;65.25;99362.34;5004282;28;20041;-64
2021/11/07 07:32:51;;;;;;;1.15;0.90;;;;;;;6.69;65.42;99371.63;4998567;28;20262;-64
2021/11/07 07:35:04;;;;;;;4.90;1.08;;;;;;;6.78;64.66;99368.09;5014581;28;20249;-64
2021/11/07 07:37:50;;;;;;;3.58;0.85;;;;;;;6.71;64.81;99368.16;5006830;28;20108;-64
2021/11/07 07:40:36;;;;;;;0.93;0.60;;;;;;;6.67;64.55;99375.91;5004857;28;20026;-64
2021/11/07 07:43:23;;;;;;;1.50;0.88;;;;;;;6.73;63.91;99373.28;5005270;28;20120;-64
2021/11/07 07:46:12;;;;;;;1.52;0.68;;;;;;;6.86;64.21;99376.59;5003198;28;20026;-64
2021/11/07 07:48:58;;;;;;;1.15;0.80;;;;;;;6.91;64.13;99373.09;5010274;28;20215;-63
2021/11/07 07:51:46;;;;;;;2.92;0.70;;;;;;;7.00;63.13;99377.28;5012042;28;20029;-64
2021/11/07 07:54:32;;;;;;;3.92;0.70;;;;;;;7.26;61.86;99376.09;5004410;28;20209;-63
2021/11/07 07:57:19;;;;;;;0.90;0.70;;;;;;;7.21;61.60;99377.88;4998869;28;20038;-64
2021/11/07 08:00:07;;;;;;;3.10;0.70;;;;;;;7.25;60.61;99369.22;5008236;28;20026;-64
2021/11/07 08:02:53;;;;;;;7.55;0.90;;;;;;;7.47;60.31;99376.66;5001828;28;20030;-64
2021/11/07 08:05:40;;;;;;;2.47;0.70;;;;;;;7.60;60.35;99367.91;5002534;28;20061;-63
2021/11/07 08:08:27;;;;;;;0.77;0.77;;;;;;;7.55;59.40;99364.53;5004272;28;20034;-62
2021/11/07 08:11:14;;;;;;;1.35;0.82;;;;;;;7.57;60.37;99368.78;4997025;28;20023;-63
2021/11/07 08:14:00;;;;;;;1.73;0.70;;;;;;;7.63;60.41;99367.03;5002844;28;20335;-62
2021/11/07 08:16:46;;;;;;;3.80;0.80;;;;;;;7.79;60.43;99368.47;5003813;28;20087;-63
2021/11/07 08:19:32;;;;;;;2.42;0.80;;;;;;;7.69;60.19;99375.50;4991902;28;20051;-63
2021/11/07 08:22:18;;;;;;;3.58;0.80;;;;;;;7.72;60.80;99380.59;4987305;28;20031;-62
2021/11/07 08:25:19;;;;;;;5.38;0.90;;;;;;;7.76;59.70;99381.41;5003464;28;20378;-63
2021/11/07 08:28:06;;;;;;;2.05;0.80;;;;;;;7.74;60.69;99380.59;5004288;28;20026;-63
2021/11/07 08:30:55;;;;;;;1.60;1.00;;;;;;;7.74;61.29;99381.44;5004128;28;20580;-62
2021/11/07 08:33:41;;;;;;;2.92;0.80;;;;;;;7.91;60.14;99391.50;5002839;28;20022;-62
2021/11/07 08:36:38;;;;;;;2.63;1.10;;;;;;;7.82;61.19;99388.22;4999166;28;20046;-63
2021/11/07 08:42:22;;;;;;;2.53;1.20;;;;;;;7.68;61.57;99391.84;5001940;28;20034;-63
2021/11/07 09:00:33;;;;;;;4.13;1.27;;;;;;;8.08;58.92;99388.66;5001503;28;20038;-62
2021/11/07 09:03:29;;;;;;;0.98;0.88;;;;;;;8.40;58.90;99389.00;5003664;28;20046;-62
2021/11/07 09:09:10;;;;;;;2.45;0.90;;;;;;;8.53;57.70;99384.50;4989113;28;20048;-61
2021/11/07 09:11:58;;;;;;;1.35;0.98;;;;;;;8.25;58.82;99392.66;5000739;28;20271;-62
2021/11/07 09:14:44;;;;;;;2.25;0.82;;;;;;;7.84;59.24;99391.59;5001997;28;20215;-64
2021/11/07 09:17:31;;;;;;;1.02;0.80;;;;;;;7.70;59.33;99378.94;4988649;28;20034;-61
2021/11/07 09:20:25;;;;;;;2.05;1.10;;;;;;;7.71;60.29;99391.81;4989243;28;20046;-62
2021/11/07 09:28:51;;;;;;;1.08;0.88;;;;;;;7.88;60.49;99382.94;5004798;28;20030;-58
2021/11/07 09:34:40;;;;;;;2.17;0.80;;;;;;;8.12;60.82;99373.97;5002363;28;20280;-61
2021/11/07 09:37:46;;;;;;;1.45;0.90;;;;;;;8.13;60.28;99365.38;5003228;28;20395;-61
2021/11/07 09:40:36;;;;;;;2.03;0.80;;;;;;;8.01;59.48;99365.56;4997839;28;20038;-59
2021/11/07 09:43:44;;;;;;;1.90;0.85;;;;;;;8.08;59.81;99367.16;5001455;28;20030;-60
2021/11/07 09:47:14;;;;;;;1.77;0.70;;;;;;;8.03;60.44;99364.66;4991721;28;20038;-60
2021/11/07 09:49:58;;;;;;;2.92;0.95;;;;;;;8.11;58.95;99359.41;4996060;28;20096;-59
2021/11/07 09:52:49;;;;;;;1.75;0.93;;;;;;;8.16;59.30;99354.16;5001560;28;20018;-60
2021/11/07 09:55:35;;;;;;;6.97;1.42;;;;;;;8.23;59.91;99366.06;4998683;28;20319;-60
2021/11/07 09:58:22;;;;;;;2.13;1.20;;;;;;;8.04;60.37;99319.94;5001967;28;20371;-63
2021/11/07 10:01:08;;;;;;;3.28;0.90;;;;;;;8.18;59.75;99327.47;5002144;28;20023;-61
2021/11/07 10:03:54;;;;;;;2.28;1.10;;;;;;;8.14;59.00;99343.88;5001186;28;20022;-60
2021/11/07 10:06:48;;;;;;;4.15;1.17;;;;;;;7.65;59.50;99298.25;5002017;28;20089;-61
2021/11/07 10:09:38;;;;;;;2.35;1.00;;;;;;;7.89;60.71;99353.72;5000965;28;20090;-60
2021/11/07 10:15:40;;;;;;;1.42;0.88;;;;;;;7.82;59.55;99372.75;5000049;28;20402;-60
2021/11/07 10:18:59;;;;;;;3.17;1.02;;;;;;;7.86;61.08;99359.78;5001212;28;20342;-61
2021/11/07 10:21:45;;;;;;;1.60;1.10;;;;;;;8.00;60.59;99367.28;4996368;28;20088;-60
2021/11/07 10:24:37;;;;;;;4.03;1.33;;;;;;;8.02;60.76;99357.78;5002473;28;20220;-62
2021/11/07 10:27:23;;;;;;;;;;;;;;;8.03;59.32;99359.50;4999763;28;20311;-60
2021/11/07 10:30:15;;;;;;;4.82;1.88;;;;;;;8.19;60.25;99369.56;5001796;28;20118;-60
2021/11/07 10:33:26;;;;;;;2.70;1.00;;;;;;;8.13;59.35;99357.63;4999892;28;20026;-63
2021/11/07 10:39:36;;;;;;;2.28;1.15;;;;;;;8.28;59.25;99353.94;5002060;28;20030;-59
2021/11/07 10:45:23;;;;;;;2.85;1.15;;;;;;;8.25;58.59;99362.59;5002306;28;20100;-60
2021/11/07 10:54:20;;;;;;;3.05;1.38;;;;;;;7.81;58.19;99296.28;5000026;28;20030;-61
2021/11/07 10:57:30;;;;;;;3.25;1.20;;;;;;;8.26;58.37;99346.22;5005697;28;20050;-59
2021/11/07 11:00:16;;;;;;;3.83;1.55;;;;;;;8.40;58.90;99345.97;5005541;28;20037;-60
2021/11/07 11:03:16;;;;;;;3.20;1.13;;;;;;;8.22;59.00;99330.81;4995832;28;20261;-61
2021/11/07 11:06:08;;;;;;;3.45;1.27;;;;;;;8.45;58.44;99344.19;5004945;28;20378;-60
2021/11/07 11:11:46;;;;;;;1.88;1.20;;;;;;;8.44;57.93;99344.19;5005284;28;20030;-61
2021/11/07 11:14:37;;;;;;;2.55;1.13;;;;;;;8.58;58.67;99331.03;5003171;28;20030;-61
2021/11/07 11:17:33;;;;;;;3.80;1.75;;;;;;;8.67;58.32;99328.31;5004933;28;20108;-60
2021/11/07 11:20:27;;;;;;;4.45;1.33;;;;;;;8.73;58.25;99330.75;5002785;28;20111;-62
2021/11/07 11:23:43;;;;;;;5.55;2.58;;;;;;;8.76;57.56;99338.44;5003599;28;20056;-61
2021/11/07 11:26:44;;;;;;;1.92;1.38;;;;;;;8.73;57.85;99325.59;5004576;28;20022;-62
2021/11/07 11:38:49;;;;;;;3.63;1.48;;;;;;;8.50;57.73;99323.47;5005132;28;20045;-60
2021/11/07 11:41:45;;;;;;;2.97;1.10;;;;;;;8.38;58.45;99323.66;5005915;28;20116;-60
2021/11/07 11:44:33;;;;;;;6.10;1.40;;;;;;;8.43;57.18;99325.25;5004784;28;20026;-60
2021/11/07 11:53:58;;;;;;;3.00;1.10;;;;;;;8.23;57.50;99302.41;5011564;28;20038;-61
2021/11/07 11:56:38;;;;;;;2.88;1.13;;;;;;;8.22;58.61;99320.50;4993693;28;20037;-59
2021/11/07 11:59:46;;;;;;;1.98;1.33;;;;;;;7.81;57.27;99262.75;5003359;28;20331;-60
2021/11/07 12:03:06;;;;;;;3.72;1.25;;;;;;;8.00;57.27;99263.31;5005812;28;20038;-62
2021/11/07 12:05:57;;;;;;;0.98;0.90;;;;;;;8.24;57.25;99317.03;5001580;28;20041;-61
2021/11/07 12:09:05;;;;;;;3.45;0.80;;;;;;;8.25;57.24;99310.13;5003955;28;20030;-62
2021/11/07 12:11:56;;;;;;;3.03;1.70;;;;;;;8.11;57.17;99321.53;5004484;28;20042;-61
2021/11/07 12:18:06;;;;;;;3.33;1.05;;;;;;;8.36;57.56;99305.63;5002408;28;20034;-60
2021/11/07 12:20:56;;;;;;;3.03;1.10;;;;;;;8.15;57.21;99251.84;5003439;28;20046;-62
2021/11/07 12:23:42;;;;;;;6.28;1.02;;;;;;;8.38;56.73;99293.56;5003849;28;20052;-61
2021/11/07 12:26:30;;;;;;;3.70;1.63;;;;;;;8.38;57.03;99290.09;5001433;28;20062;-61
2021/11/07 12:29:36;;;;;;;3.63;1.60;;;;;;;8.31;56.70;99286.81;5003889;28;20141;-61
2021/11/07 12:32:24;;;;;;;3.33;1.23;;;;;;;7.99;58.05;99234.06;5002148;28;20022;-61
2021/11/07 12:35:55;;;;;;;2.42;1.08;;;;;;;8.07;57.15;99236.53;5004868;28;20100;-62
2021/11/07 12:41:39;;;;;;;3.15;1.50;;;;;;;8.24;57.72;99274.91;5004307;28;20215;-61
2021/11/07 12:44:26;;;;;;;5.22;1.58;;;;;;;8.41;57.42;99270.28;5005337;28;20101;-64
2021/11/07 12:47:12;;;;;;;7.38;2.22;;;;;;;8.48;58.04;99270.16;5003105;28;20049;-62
2021/11/07 12:50:04;;;;;;;2.65;1.40;;;;;;;8.10;57.53;99206.34;5003035;28;20042;-63
2021/11/07 12:52:53;;;;;;;2.85;1.65;;;;;;;8.19;57.60;99214.81;5011549;28;20137;-63
2021/11/07 12:55:39;;;;;;;4.13;1.70;;;;;;;8.44;58.34;99259.03;4990622;28;20034;-61
2021/11/07 12:58:25;;;;;;;4.15;1.70;;;;;;;8.43;58.63;99244.44;5002708;28;20038;-64
2021/11/07 13:01:11;;;;;;;4.93;1.50;;;;;;;8.49;58.69;99257.22;4989736;28;20025;-62
2021/11/07 13:04:02;;;;;;;4.05;2.10;;;;;;;8.39;57.79;99253.13;5002365;28;20022;-61
2021/11/07 13:06:54;;;;;;;7.25;1.95;;;;;;;8.34;58.55;99249.75;5001200;28;20022;-63
2021/11/07 13:09:44;;;;;;;;;;;;;;;8.25;58.17;99246.50;5001488;28;20027;-61
2021/11/07 13:12:48;;;;;;;7.70;2.20;;;;;;;8.25;58.90;99250.78;4998855;28;20072;-61
2021/11/07 13:15:46;;;;;;;5.07;2.08;;;;;;;8.25;57.89;99255.94;4999651;28;20042;-63
2021/11/07 13:18:58;;;;;;;6.35;2.45;;;;;;;7.88;58.31;99195.63;5002386;28;20030;-62
2021/11/07 13:22:25;;;;;;;6.45;2.40;;;;;;;8.02;57.84;99244.31;4997244;28;20350;-62
2021/11/07 13:28:20;;;;;;;4.22;2.15;;;;;;;7.84;57.62;99196.53;4992678;28;20038;-63
2021/11/07 13:31:19;;;;;;;4.53;1.73;;;;;;;7.76;56.78;99191.50;5000001;28;20089;-63
2021/11/07 13:34:17;;;;;;;6.43;1.92;;;;;;;8.13;56.41;99236.41;4999748;28;20027;-63
2021/11/07 13:37:05;;;;;;;5.28;1.55;;;;;;;8.27;57.22;99242.16;5012292;28;20030;-61
2021/11/07 13:39:52;;;;;;;7.05;1.48;;;;;;;8.26;57.55;99239.59;4996654;28;20034;-62
2021/11/07 13:42:41;;;;;;;4.72;1.50;;;;;;;8.07;56.23;99247.69;5000920;28;20053;-62
2021/11/07 13:45:31;;;;;;;5.32;1.40;;;;;;;8.13;57.58;99226.09;4998964;28;20053;-63
2021/11/07 13:48:29;;;;;;;2.90;1.45;;;;;;;7.84;57.70;99175.06;5000054;28;20022;-63
2021/11/07 13:51:15;;;;;;;5.40;1.95;;;;;;;8.20;58.00;99224.25;4999209;28;20034;-63
2021/11/07 13:54:04;;;;;;;5.15;1.83;;;;;;;8.09;58.27;99230.47;5005146;28;20211;-61
2021/11/07 13:56:51;;;;;;;3.65;1.55;;;;;;;8.11;58.83;99222.69;4999122;28;20244;-62
2021/11/07 13:59:40;;;;;;;3.78;1.73;;;;;;;7.81;58.59;99172.53;5003647;28;20034;-61
2021/11/07 14:02:26;;;;;;;3.42;1.42;;;;;;;7.95;59.24;99211.81;5002142;28;20030;-62
2021/11/07 14:05:12;;;;;;;3.13;1.95;;;;;;;7.94;59.79;99208.38;5000888;28;20030;-62
2021/11/07 14:08:02;;;;;;;8.52;2.20;;;;;;;7.97;60.25;99209.19;5003325;28;20041;-62
2021/11/07 14:10:48;;;;;;;5.75;2.38;;;;;;;7.98;59.77;99209.19;5001756;28;20286;-60
2021/11/07 14:13:44;;;;;;;6.50;2.10;;;;;;;7.78;61.45;99164.00;5000861;28;20211;-64
2021/11/07 14:16:53;;;;;;;6.75;1.83;;;;;;;7.76;61.10;99159.75;4995625;28;20045;-63
2021/11/07 14:19:45;;;;;;;6.38;2.15;;;;;;;8.19;59.88;99209.66;5003220;28;20104;-63
2021/11/07 14:22:32;;;;;;;6.32;1.95;;;;;;;8.04;61.27;99215.97;5005463;28;20030;-61
2021/11/07 14:25:19;;;;;;;4.15;2.20;;;;;;;7.95;61.26;99228.13;5004167;28;20038;-61
2021/11/07 14:28:10;;;;;;;4.25;1.80;;;;;;;8.00;61.23;99214.31;5005645;28;20036;-61
2021/11/07 14:30:58;;;;;;;4.15;2.10;;;;;;;8.04;62.49;99206.50;5000838;28;20026;-61
2021/11/07 14:33:49;;;;;;;5.03;1.63;;;;;;;7.97;62.06;99209.19;5001025;28;20223;-62
2021/11/07 14:39:46;;;;;;;7.03;2.20;;;;;;;7.85;64.30;99158.72;5005000;28;20040;-63
2021/11/07 14:43:08;;;;;;;4.32;2.40;;;;;;;8.05;63.49;99197.88;5006061;28;20422;-62
2021/11/07 14:52:14;;;;;;;3.28;1.92;;;;;;;8.01;65.58;99185.91;5003569;28;20037;-63
2021/11/07 14:55:15;;;;;;;4.10;1.48;;;;;;;7.68;66.18;99138.41;5005271;28;20022;-62
2021/11/07 14:58:28;;;;;;;5.27;1.93;;;;;;;7.67;67.81;99144.47;5002676;28;20061;-62
2021/11/07 15:01:40;;;;;;;;;;;;;;;7.76;69.02;99200.97;5003315;28;20038;-64
2021/11/07 15:05:23;;;;;;;4.00;1.73;;;;;;;7.65;69.60;99185.69;5000682;28;19955;-62
2021/11/07 15:11:27;;;;;;;4.68;1.95;;;;;;;7.65;71.53;99174.53;5005469;28;20222;-65
2021/11/07 15:17:32;;;;;;;3.90;2.55;;;;;;;7.35;74.09;99175.03;5002429;28;20042;-62
2021/11/07 15:20:25;;;;;;;5.03;2.10;;;;;;;7.31;75.13;99173.41;5016444;28;20281;-64
2021/11/07 15:23:34;;;;;;;4.68;2.50;;;;;;;7.41;75.73;99168.94;5005455;28;20038;-62
2021/11/07 15:26:33;;;;;;;12.23;2.95;;;;;;;7.34;75.92;99162.19;5006362;28;20092;-61
2021/11/07 15:29:24;;;;;;;3.95;2.17;;;;;;;7.05;75.90;99107.75;5005564;28;20033;-62
2021/11/07 15:32:16;;;;;;;4.50;2.45;;;;;;;7.16;75.56;99117.00;4994282;28;20026;-62
2021/11/07 15:35:15;;;;;;;2.45;2.08;;;;;;;7.53;76.35;99168.72;4991128;28;20022;-61
2021/11/07 15:38:14;;;;;;;6.10;2.30;;;;;;;7.30;77.32;99158.81;5007111;28;20092;-62
2021/11/07 15:41:07;;;;;;;5.63;3.15;;;;;;;7.30;78.58;99158.00;5007056;28;20030;-62
2021/11/07 15:43:54;;;;;;;4.60;2.33;;;;;;;7.41;78.26;99144.03;5004734;28;20125;-62